createdAt,value
2019-05-23T00:02:38.715Z,12.60
2019-05-23T00:07:34.871Z,12.60
2019-05-23T00:12:43.276Z,12.60
2019-05-23T00:17:37.600Z,12.60
2019-05-23T00:22:33.774Z,12.50
2019-05-23T00:27:29.373Z,12.50
2019-05-23T00:32:34.994Z,12.60
2019-05-23T00:37:32.116Z,12.60
2019-05-23T00:42:26.362Z,12.60
2019-05-23T00:47:22.746Z,12.60
2019-05-23T00:57:13.264Z,12.60
2019-05-23T01:02:10.619Z,12.50
2019-05-23T01:07:07.633Z,12.50
2019-05-23T01:12:02.959Z,12.50
2019-05-23T01:16:57.605Z,12.50
2019-05-23T01:21:59.411Z,12.60
2019-05-23T01:26:55.277Z,12.60
2019-05-23T01:36:46.683Z,12.60
2019-05-23T01:41:42.097Z,12.60
2019-05-23T01:46:38.543Z,12.50
2019-05-23T01:51:33.627Z,12.50
2019-05-23T01:56:28.430Z,12.50
2019-05-23T02:01:22.275Z,12.40
2019-05-23T02:06:17.152Z,12.40
2019-05-23T02:11:13.033Z,12.30
2019-05-23T02:16:08.124Z,12.30
2019-05-23T02:21:02.913Z,12.20
2019-05-23T02:25:58.234Z,12.10
2019-05-23T02:30:52.702Z,12.20
2019-05-23T02:35:47.046Z,12.10
2019-05-23T02:40:46.623Z,12.10
2019-05-23T02:45:47.726Z,12.00
2019-05-23T02:51:00.128Z,11.90
2019-05-23T02:55:58.633Z,11.80
2019-05-23T03:01:14.330Z,11.70
2019-05-23T03:06:12.880Z,11.60
2019-05-23T03:11:17.983Z,11.50
2019-05-23T03:16:15.404Z,11.50
2019-05-23T03:21:09.917Z,11.50
2019-05-23T03:26:06.786Z,11.50
2019-05-23T03:31:28.852Z,11.60
2019-05-23T03:36:08.432Z,11.60
2019-05-23T03:41:04.131Z,11.60
2019-05-23T03:46:02.932Z,11.70
2019-05-23T03:50:58.468Z,11.80
2019-05-23T03:55:53.845Z,11.80
2019-05-23T04:00:51.848Z,11.90
2019-05-23T04:05:46.287Z,11.90
2019-05-23T04:10:40.835Z,12.00
2019-05-23T04:15:35.749Z,12.10
2019-05-23T04:20:31.830Z,12.10
2019-05-23T04:25:25.996Z,12.10
2019-05-23T04:30:20.990Z,12.10
2019-05-23T04:35:15.277Z,12.30
2019-05-23T04:40:13.433Z,12.40
2019-05-23T04:45:08.039Z,12.60
2019-05-23T04:50:03.188Z,12.70
2019-05-23T04:54:58.836Z,12.70
2019-05-23T04:59:54.336Z,12.80
2019-05-23T05:04:50.222Z,12.90
2019-05-23T05:09:45.479Z,13.00
2019-05-23T05:14:39.729Z,13.20
2019-05-23T05:19:34.399Z,13.40
2019-05-23T05:24:28.898Z,13.60
2019-05-23T05:34:19.020Z,13.90
2019-05-23T05:39:14.087Z,14.20
2019-05-23T05:44:11.666Z,14.40
2019-05-23T05:49:06.302Z,14.50
2019-05-23T05:54:01.891Z,14.60
2019-05-23T05:58:57.222Z,14.80
2019-05-23T06:03:52.283Z,14.70
2019-05-23T06:08:47.645Z,14.90
2019-05-23T06:13:42.294Z,15.10
2019-05-23T06:18:36.889Z,15.20
2019-05-23T06:23:33.889Z,15.60
2019-05-23T06:28:29.322Z,16.10
2019-05-23T06:33:25.375Z,16.60
2019-05-23T06:38:19.824Z,17.30
2019-05-23T06:43:14.362Z,18.10
2019-05-23T06:48:09.753Z,19.10
2019-05-23T06:53:07.338Z,22.90
2019-05-23T06:58:07.569Z,27.80
2019-05-23T07:03:05.129Z,27.80
2019-05-23T07:07:59.035Z,27.40
2019-05-23T07:12:53.747Z,27.80
2019-05-23T07:17:47.475Z,29.20
2019-05-23T07:22:44.086Z,27.70
2019-05-23T07:27:39.172Z,27.60
2019-05-23T07:32:36.576Z,28.90
2019-05-23T07:37:30.433Z,31.10
2019-05-23T07:42:25.216Z,30.40
2019-05-23T07:52:19.658Z,30.70
2019-05-23T07:57:19.636Z,33.70
2019-05-23T08:02:25.534Z,35.40
2019-05-23T08:07:19.446Z,36.50
2019-05-23T08:12:14.139Z,37.50
2019-05-23T08:17:09.892Z,39.20
2019-05-23T08:22:04.485Z,40.20
2019-05-23T08:27:02.223Z,40.00
2019-05-23T08:31:57.571Z,36.60
2019-05-23T08:36:54.008Z,36.10
2019-05-23T08:41:49.539Z,33.50
2019-05-23T08:46:44.043Z,34.10
2019-05-23T08:51:40.015Z,37.60
2019-05-23T08:56:36.340Z,38.50
2019-05-23T09:01:32.575Z,39.00
2019-05-23T09:06:29.834Z,40.80
2019-05-23T09:11:25.036Z,39.10
2019-05-23T09:16:19.160Z,36.80
2019-05-23T09:21:13.460Z,37.80
2019-05-23T09:26:08.501Z,40.60
2019-05-23T09:31:05.077Z,39.10
2019-05-23T09:36:02.718Z,39.90
2019-05-23T09:40:57.988Z,42.00
2019-05-23T09:45:52.939Z,42.20
2019-05-23T09:50:48.239Z,42.90
2019-05-23T09:55:43.870Z,44.80
2019-05-23T10:00:39.520Z,44.90
2019-05-23T10:05:43.015Z,46.00
2019-05-23T10:10:33.937Z,45.50
2019-05-23T10:15:38.864Z,43.90
2019-05-23T10:20:37.271Z,44.40
2019-05-23T10:25:33.199Z,45.20
2019-05-23T10:30:27.550Z,45.80
2019-05-23T10:35:22.116Z,46.50
2019-05-23T10:40:18.312Z,46.70
2019-05-23T10:45:14.636Z,45.90
2019-05-23T10:50:10.408Z,46.30
2019-05-23T10:55:06.762Z,45.60
2019-05-23T11:00:01.340Z,45.00
2019-05-23T11:04:57.306Z,44.20
2019-05-23T11:09:52.567Z,41.40
2019-05-23T11:14:47.421Z,36.70
2019-05-23T11:19:46.715Z,33.00
2019-05-23T11:24:42.326Z,30.40
2019-05-23T11:29:36.567Z,28.60
2019-05-23T11:34:32.053Z,27.80
2019-05-23T11:39:26.845Z,27.30
2019-05-23T11:54:10.121Z,26.00
2019-05-23T11:59:06.452Z,25.50
2019-05-23T12:04:02.459Z,25.30
2019-05-23T12:08:58.305Z,24.90
2019-05-23T12:13:52.862Z,24.50
2019-05-23T12:18:47.241Z,24.40
2019-05-23T12:23:43.200Z,24.30
2019-05-23T12:28:37.314Z,24.00
2019-05-23T12:33:33.960Z,24.00
2019-05-23T12:38:29.151Z,24.00
2019-05-23T12:43:24.878Z,24.10
2019-05-23T12:48:21.287Z,24.00
2019-05-23T12:53:21.568Z,23.90
2019-05-23T12:58:18.880Z,23.90
2019-05-23T13:03:14.676Z,23.90
2019-05-23T13:08:10.574Z,23.80
2019-05-23T13:13:06.109Z,23.90
2019-05-23T13:18:01.618Z,23.80
2019-05-23T13:22:57.738Z,23.50
2019-05-23T13:27:52.339Z,23.50
2019-05-23T13:32:47.640Z,23.30
2019-05-23T13:37:53.274Z,23.20
2019-05-23T13:42:39.745Z,23.10
2019-05-23T13:47:36.828Z,23.00
2019-05-23T13:52:31.295Z,22.90
2019-05-23T13:57:28.371Z,22.70
2019-05-23T14:02:23.164Z,22.40
2019-05-23T14:07:18.323Z,22.20
2019-05-23T14:12:21.359Z,22.20
2019-05-23T14:17:12.533Z,22.30
2019-05-23T14:22:10.159Z,22.30
2019-05-23T14:27:20.189Z,22.20
2019-05-23T14:32:22.450Z,22.10
2019-05-23T14:37:19.139Z,22.00
2019-05-23T14:42:14.845Z,21.70
2019-05-23T14:47:16.274Z,21.30
2019-05-23T14:52:30.362Z,21.20
2019-05-23T14:57:25.896Z,21.20
2019-05-23T15:02:20.780Z,21.30
2019-05-23T15:07:15.212Z,21.20
2019-05-23T15:12:09.480Z,21.10
2019-05-23T15:17:04.312Z,21.10
2019-05-23T15:21:59.337Z,20.90
2019-05-23T15:26:54.016Z,20.90
2019-05-23T15:32:01.559Z,20.70
2019-05-23T15:36:45.983Z,20.60
2019-05-23T15:41:51.289Z,20.40
2019-05-23T15:51:45.071Z,20.20
2019-05-23T15:56:44.011Z,20.20
2019-05-23T16:01:55.215Z,20.20
2019-05-23T16:06:49.988Z,20.20
2019-05-23T16:11:47.059Z,20.20
2019-05-23T16:16:41.791Z,20.10
2019-05-23T16:21:38.760Z,20.00
2019-05-23T16:26:33.583Z,19.90
2019-05-23T16:31:29.505Z,20.10
2019-05-23T16:36:23.332Z,20.20
2019-05-23T16:41:17.592Z,20.40
2019-05-23T16:46:11.892Z,20.50
2019-05-23T16:56:08.488Z,20.80
2019-05-23T17:01:24.252Z,20.80
2019-05-23T17:06:23.177Z,20.80
2019-05-23T17:11:20.370Z,20.70
2019-05-23T17:16:23.572Z,20.50
2019-05-23T17:21:20.785Z,20.30
2019-05-23T17:26:31.805Z,20.00
2019-05-23T17:31:29.963Z,19.90
2019-05-23T17:36:25.342Z,19.70
2019-05-23T17:41:20.424Z,19.60
2019-05-23T17:46:15.200Z,19.50
2019-05-23T17:51:08.997Z,19.30
2019-05-23T17:56:03.520Z,19.10
2019-05-23T18:00:58.402Z,18.90
2019-05-23T18:05:52.796Z,18.70
2019-05-23T18:10:47.185Z,18.60
2019-05-23T18:15:41.715Z,18.30
2019-05-23T18:20:37.907Z,18.20
2019-05-23T18:25:32.741Z,18.00
2019-05-23T18:30:45.993Z,17.90
2019-05-23T18:35:42.279Z,17.80
2019-05-23T18:40:36.870Z,17.60
2019-05-23T18:45:32.684Z,17.40
2019-05-23T18:50:28.328Z,17.30
2019-05-23T18:55:22.661Z,17.00
2019-05-23T19:00:19.508Z,16.80
2019-05-23T19:05:13.580Z,16.70
2019-05-23T19:10:09.241Z,16.50
2019-05-23T19:15:03.321Z,16.30
2019-05-23T19:19:57.556Z,16.20
2019-05-23T19:24:51.783Z,16.00
2019-05-23T19:29:46.272Z,15.80
2019-05-23T19:34:40.267Z,15.70
2019-05-23T19:44:32.167Z,15.20
2019-05-23T19:49:27.682Z,15.00
2019-05-23T19:54:22.188Z,14.70
2019-05-23T19:59:16.147Z,14.60
2019-05-23T20:04:12.513Z,14.40
2019-05-23T20:09:10.707Z,14.30
2019-05-23T20:14:04.865Z,14.20
2019-05-23T20:19:00.195Z,14.00
2019-05-23T20:23:54.441Z,14.00
2019-05-23T20:28:48.566Z,13.80
2019-05-23T20:33:42.514Z,13.60
2019-05-23T20:38:37.226Z,13.50
2019-05-23T20:48:26.465Z,13.20
2019-05-23T20:53:20.712Z,13.10
2019-05-23T20:58:17.249Z,13.10
2019-05-23T21:03:12.995Z,13.00
2019-05-23T21:17:53.580Z,12.70
2019-05-23T21:22:47.340Z,12.60
2019-05-23T21:27:41.319Z,12.50
2019-05-23T21:32:36.657Z,12.30
2019-05-23T21:42:23.529Z,12.00
2019-05-23T21:47:17.403Z,12.00
2019-05-23T21:52:11.834Z,12.00
2019-05-23T21:57:07.221Z,11.90
2019-05-23T22:02:09.327Z,11.80
2019-05-23T22:07:05.077Z,11.70
2019-05-23T22:11:59.918Z,11.60
2019-05-23T22:16:55.062Z,11.50
2019-05-23T22:21:49.799Z,11.50
2019-05-23T22:26:47.374Z,11.40
2019-05-23T22:31:43.468Z,11.40
2019-05-23T22:36:39.181Z,11.30
2019-05-23T22:41:33.688Z,11.20
2019-05-23T22:46:29.060Z,11.20
2019-05-23T22:51:23.784Z,11.20
2019-05-23T22:56:17.771Z,11.10
2019-05-23T23:01:12.283Z,11.00
2019-05-23T23:06:07.105Z,11.00
2019-05-23T23:11:01.653Z,10.90
2019-05-23T23:15:55.492Z,10.90
2019-05-23T23:20:52.316Z,10.90
2019-05-23T23:25:46.668Z,10.90
2019-05-23T23:30:42.863Z,10.90
2019-05-23T23:35:36.916Z,10.90
2019-05-23T23:40:30.906Z,10.80
2019-05-23T23:45:44.619Z,10.70
2019-05-23T23:51:00.072Z,10.60
2019-05-23T23:56:12.051Z,10.60
